Time;durP1;ratioP1;P1;durP2;ratioP2;P2;SDS_P1;SDS_P2;PMS_P1;PMS_P2;Temp;Humidity;BMP_temperature;BMP_pressure;BME280_temperature;BME280_humidity;BME280_pressure;Samples;Min_cycle;Max_cycle;Signal;HPM_P1;HPM_P2
2023/11/01 00:00:47;;;;;;;2.53;1.50;;;;;;;10.37;73.94;98040.94;4984200;28;102834;-65
2023/11/01 00:03:15;;;;;;;3.97;2.00;;;;;;;10.40;73.82;98035.28;4986326;28;103851;-66
2023/11/01 00:05:46;;;;;;;3.55;1.92;;;;;;;10.39;73.49;98044.22;4984155;28;103168;-66
2023/11/01 00:08:16;;;;;;;3.60;2.10;;;;;;;10.37;73.50;98046.22;4981433;28;102740;-66
2023/11/01 00:10:44;;;;;;;4.82;1.92;;;;;;;10.42;73.48;98048.34;4987303;28;102785;-66
2023/11/01 00:13:12;;;;;;;2.65;1.70;;;;;;;10.40;73.73;98045.88;4983072;28;103246;-66
2023/11/01 00:15:40;;;;;;;4.35;1.67;;;;;;;10.37;73.47;98040.94;4986475;28;103256;-66
2023/11/01 00:18:08;;;;;;;3.65;1.80;;;;;;;10.37;73.61;98040.13;4984177;28;102737;-66
2023/11/01 00:20:36;;;;;;;2.58;1.70;;;;;;;10.39;73.42;98036.28;4985954;28;102806;-66
2023/11/01 00:23:04;;;;;;;5.45;1.90;;;;;;;10.40;73.48;98040.59;4987051;28;103057;-66
2023/11/01 00:25:35;;;;;;;5.18;2.15;;;;;;;10.45;73.25;98043.50;4985717;28;103306;-66
2023/11/01 00:28:03;;;;;;;3.53;2.15;;;;;;;10.45;73.40;98032.91;4980470;28;102657;-66
2023/11/01 00:30:33;;;;;;;5.28;1.77;;;;;;;10.45;73.13;98034.72;4973845;28;104245;-66
2023/11/01 00:33:01;;;;;;;5.18;1.88;;;;;;;10.45;73.17;98032.91;4974310;28;104731;-67
2023/11/01 00:35:29;;;;;;;3.30;1.67;;;;;;;10.48;73.27;98036.19;4984233;28;104463;-66
2023/11/01 00:37:57;;;;;;;2.25;1.55;;;;;;;10.50;72.96;98031.53;4986061;28;102761;-66
2023/11/01 00:40:25;;;;;;;1.98;1.40;;;;;;;10.54;73.33;98028.31;4969015;28;103431;-66
2023/11/01 00:42:54;;;;;;;7.47;1.70;;;;;;;10.51;73.58;98027.91;4968300;28;104186;-66
2023/11/01 00:45:22;;;;;;;3.67;1.60;;;;;;;10.51;73.30;98020.75;4981507;28;104028;-66
2023/11/01 00:47:50;;;;;;;3.88;1.90;;;;;;;10.52;73.25;98018.91;4981721;28;103789;-66
2023/11/01 00:50:18;;;;;;;4.13;1.73;;;;;;;10.47;73.12;98014.19;4974874;28;103707;-66
2023/11/01 00:52:46;;;;;;;5.28;2.00;;;;;;;10.51;73.17;98019.94;4982038;28;103274;-66
2023/11/01 00:55:15;;;;;;;5.43;1.80;;;;;;;10.54;73.17;98017.72;4971637;28;104189;-66
2023/11/01 00:57:43;;;;;;;3.05;1.60;;;;;;;10.57;73.14;98019.19;4967166;28;102693;-66
2023/11/01 01:00:14;;;;;;;3.58;1.80;;;;;;;10.60;73.02;98017.00;4966187;28;104609;-66
2023/11/01 01:02:42;;;;;;;3.75;1.60;;;;;;;10.61;72.86;98012.50;4984757;28;103712;-67
2023/11/01 01:05:10;;;;;;;3.03;1.60;;;;;;;10.54;72.94;98003.69;4983701;28;103388;-66
2023/11/01 01:07:39;;;;;;;3.42;1.70;;;;;;;10.51;72.77;98014.66;4964618;28;102745;-66
2023/11/01 01:10:08;;;;;;;3.15;1.52;;;;;;;10.54;72.81;98016.91;4984548;28;104588;-66
2023/11/01 01:12:37;;;;;;;2.53;1.50;;;;;;;10.58;73.00;98010.25;4968073;28;104261;-66
2023/11/01 01:15:07;;;;;;;3.78;1.80;;;;;;;10.56;73.01;98010.44;4981327;28;103355;-66
2023/11/01 01:17:37;;;;;;;3.53;1.50;;;;;;;10.61;72.68;98004.56;4971178;28;103124;-66
2023/11/01 01:20:05;;;;;;;3.50;1.70;;;;;;;10.62;72.99;98000.91;4987877;28;103006;-66
2023/11/01 01:22:36;;;;;;;4.18;2.17;;;;;;;10.67;72.69;98003.84;4969126;28;104145;-66
2023/11/01 01:25:05;;;;;;;2.80;1.52;;;;;;;10.69;72.42;98001.84;4975832;28;104238;-66
2023/11/01 01:27:33;;;;;;;4.22;1.70;;;;;;;10.71;72.64;97996.34;4979030;28;102682;-66
2023/11/01 01:30:01;;;;;;;2.38;1.60;;;;;;;10.72;73.20;98001.44;4972735;28;103817;-66
2023/11/01 01:32:31;;;;;;;6.53;1.95;;;;;;;10.72;73.25;98001.44;4970547;28;103127;-66
2023/11/01 01:35:04;;;;;;;3.28;1.55;;;;;;;10.71;72.91;97994.50;4967997;28;104165;-66
2023/11/01 01:37:31;;;;;;;2.90;1.45;;;;;;;10.72;72.96;97988.22;4964955;28;102694;-66
2023/11/01 01:40:00;;;;;;;2.65;1.65;;;;;;;10.71;73.04;97989.22;4985074;28;103994;-66
2023/11/01 01:42:28;;;;;;;4.25;1.85;;;;;;;10.69;72.83;97985.09;4988999;28;104107;-66
2023/11/01 01:44:56;;;;;;;3.30;1.70;;;;;;;10.69;72.87;97975.34;4976526;28;104380;-66
2023/11/01 01:47:24;;;;;;;3.38;1.60;;;;;;;10.68;73.06;97978.19;4989104;28;102674;-66
2023/11/01 01:49:52;;;;;;;2.63;1.63;;;;;;;10.72;72.51;97972.31;4979923;28;102696;-66
2023/11/01 01:52:22;;;;;;;3.97;1.77;;;;;;;10.74;72.56;97977.44;4962723;28;104417;-66
2023/11/01 01:54:51;;;;;;;4.88;1.67;;;;;;;10.72;72.36;97959.06;4983487;28;103258;-66
2023/11/01 01:57:24;;;;;;;5.28;1.95;;;;;;;10.74;72.25;97957.06;4968560;28;102694;-66
2023/11/01 01:59:53;;;;;;;4.70;2.08;;;;;;;10.71;72.63;97954.78;4970573;28;104065;-66
2023/11/01 02:02:22;;;;;;;5.78;1.80;;;;;;;10.70;72.09;97950.53;4969276;28;104232;-66
2023/11/01 02:04:50;;;;;;;3.53;1.70;;;;;;;10.68;72.50;97947.22;4976323;28;103304;-66
2023/11/01 02:07:18;;;;;;;2.45;1.42;;;;;;;10.63;72.40;97946.97;4988509;28;103880;-66
2023/11/01 02:09:47;;;;;;;5.28;1.60;;;;;;;10.65;72.41;97960.84;4972729;28;102828;-66
2023/11/01 02:12:15;;;;;;;3.15;1.60;;;;;;;10.67;72.45;97955.34;4969118;28;104366;-66
2023/11/01 02:14:43;;;;;;;5.20;1.83;;;;;;;10.62;72.26;97969.16;4977050;28;104151;-66
2023/11/01 02:17:11;;;;;;;7.32;3.67;;;;;;;10.60;72.18;97963.22;4967544;28;102630;-66
2023/11/01 02:19:39;;;;;;;8.43;2.90;;;;;;;10.54;72.81;97956.84;4976148;28;104285;-66
2023/11/01 02:22:07;;;;;;;7.72;3.03;;;;;;;10.60;72.43;97961.41;4977969;28;104527;-66
2023/11/01 02:24:40;;;;;;;6.53;2.88;;;;;;;10.58;72.95;97959.94;4986696;28;103241;-66
2023/11/01 02:27:08;;;;;;;6.13;2.95;;;;;;;10.42;73.53;97953.84;4984438;28;102685;-66
2023/11/01 02:29:36;;;;;;;5.50;2.78;;;;;;;10.43;73.78;97955.50;4971579;28;102797;-66
2023/11/01 02:32:05;;;;;;;5.97;2.72;;;;;;;10.45;73.55;97953.50;4987018;28;103250;-66
2023/11/01 02:34:33;;;;;;;6.97;3.00;;;;;;;10.40;73.75;97942.63;4978174;28;104381;-66
2023/11/01 02:37:01;;;;;;;3.45;2.10;;;;;;;10.39;73.73;97938.34;4968036;28;102731;-66
2023/11/01 02:39:29;;;;;;;2.60;1.70;;;;;;;10.33;74.48;97936.41;4995092;28;102688;-66
2023/11/01 02:41:58;;;;;;;4.43;2.33;;;;;;;10.38;74.35;97936.69;4977405;28;104596;-66
2023/11/01 02:44:26;;;;;;;3.85;2.17;;;;;;;10.39;74.54;97938.34;4972890;28;104108;-66
2023/11/01 02:46:54;;;;;;;3.45;1.98;;;;;;;10.40;74.23;97929.41;4979111;28;102680;-66
2023/11/01 02:49:22;;;;;;;4.25;2.17;;;;;;;10.41;74.37;97933.66;4981795;28;102675;-66
2023/11/01 02:51:51;;;;;;;4.13;2.05;;;;;;;10.40;74.51;97932.06;4969834;28;104275;-66
2023/11/01 02:54:19;;;;;;;4.07;2.03;;;;;;;10.38;74.60;97931.41;4968934;28;104118;-66
2023/11/01 02:56:49;;;;;;;3.47;2.00;;;;;;;10.38;74.63;97926.09;4983227;28;102850;-66
2023/11/01 02:59:18;;;;;;;4.28;2.08;;;;;;;10.39;74.92;97929.59;4992688;28;103909;-66
2023/11/01 03:01:46;;;;;;;5.43;2.90;;;;;;;10.38;74.52;97925.31;4989230;28;103433;-66
2023/11/01 03:04:14;;;;;;;4.30;2.10;;;;;;;10.37;74.12;97928.94;4969721;28;104228;-66
2023/11/01 03:06:43;;;;;;;6.78;2.30;;;;;;;10.33;74.01;97928.47;4969484;28;102743;-66
2023/11/01 03:09:13;;;;;;;5.82;2.28;;;;;;;10.30;73.57;97920.91;4973620;28;102734;-66
2023/11/01 03:11:41;;;;;;;4.20;1.88;;;;;;;10.23;73.60;97918.19;4972341;28;104344;-66
2023/11/01 03:14:10;;;;;;;3.92;1.90;;;;;;;10.22;73.25;97916.53;4975597;28;104163;-66
2023/11/01 03:16:39;;;;;;;4.53;2.15;;;;;;;10.24;73.40;97911.03;4971601;28;102817;-66
2023/11/01 03:19:07;;;;;;;2.95;1.50;;;;;;;10.28;73.08;97912.31;4988926;28;104482;-66
2023/11/01 03:21:35;;;;;;;2.65;1.60;;;;;;;10.31;73.09;97914.59;4985732;28;104612;-66
2023/11/01 03:24:03;;;;;;;3.47;1.83;;;;;;;10.29;72.86;97900.72;4990149;28;103422;-66
2023/11/01 03:26:33;;;;;;;5.32;1.90;;;;;;;10.33;72.84;97901.19;4990712;28;102690;-66
2023/11/01 03:29:01;;;;;;;3.63;1.75;;;;;;;10.30;72.94;97902.38;4974601;28;102778;-66
2023/11/01 03:31:29;;;;;;;3.17;1.50;;;;;;;10.31;73.12;97908.47;4974146;28;104307;-66
2023/11/01 03:33:59;;;;;;;3.80;1.85;;;;;;;10.32;72.88;97904.81;4974265;28;103187;-66
2023/11/01 03:36:26;;;;;;;3.05;1.60;;;;;;;10.31;73.12;97901.38;4970434;28;102692;-66
2023/11/01 03:38:55;;;;;;;4.03;1.70;;;;;;;10.33;73.01;97902.00;4973570;28;102826;-66
2023/11/01 03:41:23;;;;;;;3.67;1.80;;;;;;;10.28;72.93;97909.66;4995935;28;103275;-66
2023/11/01 03:43:51;;;;;;;3.38;1.70;;;;;;;10.28;73.41;97909.66;4971132;28;104099;-66
2023/11/01 03:46:21;;;;;;;4.78;1.65;;;;;;;10.24;73.55;97903.09;4990343;28;102625;-66
2023/11/01 03:48:50;;;;;;;3.92;1.77;;;;;;;10.21;73.31;97906.13;4991452;28;103886;-66
2023/11/01 03:51:19;;;;;;;4.18;1.65;;;;;;;10.16;73.64;97911.16;4971983;28;104223;-66
2023/11/01 03:53:49;;;;;;;3.05;1.83;;;;;;;10.11;74.04;97909.06;4974717;28;103141;-66
2023/11/01 03:56:20;;;;;;;2.30;1.42;;;;;;;10.06;73.95;97896.41;4994197;28;102688;-66
2023/11/01 03:58:48;;;;;;;3.22;1.70;;;;;;;9.99;73.72;97895.47;4986118;28;104076;-66
2023/11/01 04:01:17;;;;;;;4.18;1.83;;;;;;;9.87;74.93;97886.38;4985432;28;104322;-66
2023/11/01 04:03:47;;;;;;;4.43;1.70;;;;;;;9.72;74.94;97892.50;4982973;28;103185;-66
2023/11/01 04:06:19;;;;;;;3.22;1.63;;;;;;;9.75;74.88;97888.66;4987656;28;102702;-66
2023/11/01 04:08:49;;;;;;;3.80;1.67;;;;;;;9.68;75.36;97888.56;4986501;28;102718;-66
2023/11/01 04:11:17;;;;;;;4.57;1.85;;;;;;;9.69;74.82;97879.63;4967277;28;104084;-66
2023/11/01 04:13:45;;;;;;;4.03;1.60;;;;;;;9.66;75.57;97877.34;4986965;28;103250;-66
2023/11/01 04:16:13;;;;;;;4.43;1.45;;;;;;;9.70;75.41;97877.81;4983888;28;102722;-66
2023/11/01 04:18:41;;;;;;;6.90;1.80;;;;;;;9.65;75.13;97875.69;4987660;28;103916;-66
2023/11/01 04:21:09;;;;;;;7.13;2.42;;;;;;;9.70;74.94;97870.69;4986924;28;104306;-66
2023/11/01 04:23:40;;;;;;;4.25;1.52;;;;;;;9.75;74.72;97868.31;4973453;28;104368;-66
2023/11/01 04:26:09;;;;;;;4.05;1.65;;;;;;;9.76;74.50;97877.91;4970048;28;102721;-66
2023/11/01 04:28:37;;;;;;;5.43;2.03;;;;;;;9.76;74.50;97875.25;4988716;28;104050;-66
2023/11/01 04:31:06;;;;;;;3.47;1.40;;;;;;;9.76;74.22;97875.25;4982596;28;103367;-66
2023/11/01 04:33:34;;;;;;;4.68;1.80;;;;;;;9.76;73.52;97875.25;4988508;28;103402;-66
2023/11/01 04:36:02;;;;;;;6.97;1.67;;;;;;;9.77;73.59;97866.31;4994425;28;103791;-67
2023/11/01 04:38:30;;;;;;;5.22;1.75;;;;;;;9.79;73.33;97864.28;4989658;28;103708;-66
2023/11/01 04:41:00;;;;;;;3.25;1.60;;;;;;;9.84;72.65;97866.41;4986105;28;104004;-66
2023/11/01 04:43:29;;;;;;;4.70;1.55;;;;;;;9.77;72.71;97861.03;4974432;28;103436;-66
2023/11/01 04:45:59;;;;;;;2.28;1.40;;;;;;;9.82;72.52;97851.72;4985965;28;102673;-66
2023/11/01 04:48:26;;;;;;;3.83;1.50;;;;;;;9.83;72.91;97851.53;4991780;28;103680;-66
2023/11/01 04:50:54;;;;;;;4.47;1.75;;;;;;;9.78;73.03;97848.63;4982777;28;103711;-66
2023/11/01 04:53:23;;;;;;;1.63;1.27;;;;;;;9.77;73.18;97845.16;4985436;28;103418;-66
2023/11/01 04:55:51;;;;;;;3.72;1.70;;;;;;;9.75;73.17;97847.16;4985171;28;103038;-66
2023/11/01 04:58:23;;;;;;;2.83;1.30;;;;;;;9.72;73.20;97847.53;4983476;28;102699;-66
2023/11/01 05:00:51;;;;;;;2.00;1.30;;;;;;;9.75;73.04;97841.88;4983584;28;104232;-66
2023/11/01 05:03:19;;;;;;;4.30;1.70;;;;;;;9.70;72.73;97838.97;4987698;28;103791;-66
2023/11/01 05:05:47;;;;;;;2.95;1.60;;;;;;;9.66;73.16;97835.03;4964286;28;103060;-66
2023/11/01 05:08:15;;;;;;;1.77;1.20;;;;;;;9.69;72.77;97837.31;4987876;28;102698;-66
2023/11/01 05:10:43;;;;;;;2.38;1.55;;;;;;;9.69;72.67;97836.50;4986120;28;104023;-66
2023/11/01 05:13:11;;;;;;;5.72;1.83;;;;;;;9.70;72.47;97838.16;4992656;28;103358;-66
2023/11/01 05:15:40;;;;;;;2.35;1.30;;;;;;;9.68;72.52;97833.06;4995653;28;102601;-66
2023/11/01 05:18:08;;;;;;;3.05;1.73;;;;;;;9.65;72.62;97830.75;4983262;28;104187;-66
2023/11/01 05:20:37;;;;;;;3.30;1.40;;;;;;;9.66;72.60;97832.41;4982751;28;104169;-66
2023/11/01 05:23:05;;;;;;;2.65;1.60;;;;;;;9.59;72.30;97836.78;4966062;28;104187;-66
2023/11/01 05:25:33;;;;;;;3.92;1.58;;;;;;;9.48;72.77;97832.75;4981772;28;102708;-67
2023/11/01 05:28:01;;;;;;;5.50;1.73;;;;;;;9.35;72.98;97820.19;4990178;28;103825;-66
2023/11/01 05:30:31;;;;;;;2.42;1.40;;;;;;;9.32;73.75;97820.56;4992269;28;104060;-66
2023/11/01 05:33:00;;;;;;;3.53;1.42;;;;;;;9.38;73.49;97830.41;4986103;28;103278;-66
2023/11/01 05:35:28;;;;;;;1.83;1.50;;;;;;;9.41;73.74;97829.22;4988238;28;103028;-66
2023/11/01 05:37:56;;;;;;;3.70;2.22;;;;;;;9.46;73.49;97827.66;4985790;28;104228;-66
2023/11/01 05:40:24;;;;;;;5.15;2.17;;;;;;;9.33;73.60;97824.00;4990610;28;103280;-66
2023/11/01 05:42:52;;;;;;;5.03;2.20;;;;;;;9.21;74.66;97826.28;4986035;28;103060;-66
2023/11/01 05:45:20;;;;;;;7.28;2.17;;;;;;;9.04;74.75;97822.97;4988424;28;103226;-66
2023/11/01 05:47:50;;;;;;;3.55;1.90;;;;;;;9.12;74.93;97834.28;4992004;28;103795;-66
2023/11/01 05:50:24;;;;;;;6.78;4.00;;;;;;;9.20;74.67;97833.38;4991820;28;103694;-66
2023/11/01 05:52:56;;;;;;;3.92;2.40;;;;;;;9.21;74.40;97823.63;4990098;28;103242;-67
2023/11/01 05:55:26;;;;;;;5.38;3.17;;;;;;;9.23;74.49;97819.00;4984837;28;102669;-66
2023/11/01 05:58:14;;;;;;;7.88;4.00;;;;;;;9.27;74.51;97825.56;4965700;28;102700;-66
2023/11/01 06:00:45;;;;;;;4.00;2.70;;;;;;;9.27;74.04;97822.91;4984835;28;104168;-66
2023/11/01 06:03:13;;;;;;;5.50;2.50;;;;;;;9.24;74.07;97821.44;4974698;28;103639;-66
2023/11/01 06:05:42;;;;;;;4.38;2.00;;;;;;;9.22;73.71;97818.19;4985592;28;103097;-66
2023/11/01 06:08:10;;;;;;;3.58;2.03;;;;;;;9.21;74.02;97828.91;4987211;28;103836;-66
2023/11/01 06:10:39;;;;;;;3.88;1.90;;;;;;;9.23;73.57;97826.94;4986060;28;103980;-66
2023/11/01 06:13:08;;;;;;;2.42;1.67;;;;;;;9.21;73.55;97813.06;4984125;28;103401;-65
2023/11/01 06:15:36;;;;;;;2.47;1.52;;;;;;;9.23;73.77;97817.16;4983798;28;102550;-65
2023/11/01 06:18:05;;;;;;;3.22;1.55;;;;;;;9.25;73.66;97823.09;4992668;28;104118;-65
2023/11/01 06:20:33;;;;;;;3.78;1.77;;;;;;;9.24;73.86;97818.00;4988044;28;104149;-65
2023/11/01 06:23:07;;;;;;;3.08;1.70;;;;;;;9.21;73.45;97823.63;4981809;28;103246;-66
2023/11/01 06:25:35;;;;;;;2.65;1.80;;;;;;;9.21;73.62;97821.00;4984097;28;102592;-64
2023/11/01 06:28:06;;;;;;;3.15;1.50;;;;;;;9.19;73.65;97817.72;4975929;28;104043;-64
2023/11/01 06:30:36;;;;;;;4.43;1.60;;;;;;;9.20;73.47;97806.16;4989562;28;103953;-64
2023/11/01 06:33:04;;;;;;;4.32;1.92;;;;;;;9.21;73.87;97815.72;4987819;28;103338;-64
2023/11/01 06:35:32;;;;;;;6.43;3.45;;;;;;;9.22;73.83;97814.72;4989152;28;102638;-64
2023/11/01 06:42:26;;;;;;;7.70;2.40;;;;;;;9.35;73.56;97812.25;4979600;28;103156;-64
2023/11/01 06:44:54;;;;;;;6.97;2.35;;;;;;;9.43;73.41;97811.34;4986962;28;103253;-64
2023/11/01 06:47:22;;;;;;;8.57;2.92;;;;;;;9.55;73.36;97819.63;4984351;28;103320;-63
2023/11/01 06:49:51;;;;;;;7.40;2.35;;;;;;;9.60;73.01;97818.09;4971133;28;104778;-64
2023/11/01 06:52:18;;;;;;;7.07;3.03;;;;;;;9.69;72.95;97826.72;4985070;28;103280;-64
2023/11/01 06:54:46;;;;;;;5.30;3.30;;;;;;;9.71;72.64;97830.03;4977906;28;103434;-64
2023/11/01 06:57:14;;;;;;;5.63;2.47;;;;;;;9.79;72.69;97827.28;4989787;28;102636;-64
2023/11/01 06:59:43;;;;;;;9.73;3.13;;;;;;;9.81;72.38;97823.63;4967138;28;104275;-64
2023/11/01 07:02:11;;;;;;;4.75;2.17;;;;;;;9.82;72.22;97820.00;4963853;28;104373;-64
2023/11/01 07:04:39;;;;;;;6.25;2.67;;;;;;;9.85;71.98;97819.59;4967136;28;104578;-64
2023/11/01 07:07:09;;;;;;;4.50;2.17;;;;;;;9.95;71.68;97820.13;4986921;28;102640;-64
2023/11/01 07:09:40;;;;;;;4.25;1.92;;;;;;;9.97;71.50;97815.50;4984146;28;103699;-64
2023/11/01 07:12:08;;;;;;;4.65;2.20;;;;;;;9.94;71.87;97821.97;4983218;28;104218;-64
2023/11/01 07:14:38;;;;;;;4.38;1.95;;;;;;;9.95;71.95;97828.06;4962922;28;104160;-64
2023/11/01 07:17:08;;;;;;;3.85;2.10;;;;;;;9.96;71.84;97816.50;4965584;28;103870;-64
2023/11/01 07:19:36;;;;;;;7.90;3.17;;;;;;;10.03;72.02;97819.22;4980946;28;103011;-64
2023/11/01 07:22:05;;;;;;;7.78;3.88;;;;;;;10.31;71.91;97808.75;4981443;28;103281;-64
2023/11/01 07:24:33;;;;;;;5.80;3.22;;;;;;;10.75;70.89;97805.06;4985674;28;104120;-64
2023/11/01 07:27:02;;;;;;;5.95;4.30;;;;;;;11.04;70.01;97797.97;4984228;28;102665;-65
2023/11/01 07:29:31;;;;;;;4.53;4.13;;;;;;;11.12;69.07;97789.03;4989779;28;102842;-65
2023/11/01 07:31:59;;;;;;;5.20;3.05;;;;;;;11.30;68.33;97796.50;4983852;28;103403;-66
2023/11/01 07:34:29;;;;;;;6.75;3.10;;;;;;;11.32;68.63;97791.00;4981310;28;103312;-65
2023/11/01 07:36:57;;;;;;;4.45;2.00;;;;;;;11.34;67.71;97795.09;4985385;28;102985;-66
2023/11/01 07:39:25;;;;;;;4.22;2.38;;;;;;;11.35;68.08;97778.19;4971229;28;104203;-66
2023/11/01 07:41:53;;;;;;;3.78;1.90;;;;;;;11.53;66.91;97776.81;4982666;28;103369;-66
2023/11/01 07:44:21;;;;;;;4.50;1.80;;;;;;;11.64;66.60;97778.13;4985178;28;103265;-66
2023/11/01 07:46:49;;;;;;;2.80;2.03;;;;;;;11.73;66.93;97779.59;4971188;28;102830;-66
2023/11/01 07:53:35;;;;;;;6.35;1.70;;;;;;;11.95;64.67;97772.34;4979766;28;103511;-66
2023/11/01 07:56:04;;;;;;;2.85;1.48;;;;;;;12.27;65.60;97759.34;4977263;28;104179;-66
2023/11/01 07:58:32;;;;;;;4.20;2.03;;;;;;;12.44;63.56;97760.59;4988122;28;102770;-66
2023/11/01 08:01:00;;;;;;;3.60;2.00;;;;;;;12.31;63.68;97757.91;4971099;28;104060;-64
2023/11/01 08:03:29;;;;;;;3.78;1.67;;;;;;;12.45;63.79;97750.78;4991641;28;103845;-65
2023/11/01 08:05:57;;;;;;;3.67;1.50;;;;;;;12.83;63.71;97763.47;4985545;28;103299;-65
2023/11/01 08:08:25;;;;;;;2.65;1.60;;;;;;;12.92;63.35;97764.06;4991991;28;102632;-64
2023/11/01 08:10:57;;;;;;;3.15;1.88;;;;;;;12.88;63.94;97757.53;4981777;28;102788;-64
2023/11/01 08:13:28;;;;;;;4.88;1.80;;;;;;;12.88;64.15;97760.19;4988510;28;104392;-64
2023/11/01 08:15:56;;;;;;;5.57;2.00;;;;;;;13.29;62.27;97753.78;4988532;28;103297;-65
2023/11/01 08:18:24;;;;;;;3.58;1.95;;;;;;;13.33;62.75;97748.84;4987891;28;102654;-66
2023/11/01 08:20:53;;;;;;;3.30;1.90;;;;;;;13.33;61.82;97752.31;4982751;28;102766;-65
2023/11/01 08:23:21;;;;;;;4.47;2.00;;;;;;;13.54;62.57;97756.56;4986158;28;104079;-64
2023/11/01 08:25:50;;;;;;;5.85;2.17;;;;;;;13.67;62.53;97758.38;4989494;28;103208;-65
2023/11/01 08:28:22;;;;;;;3.65;1.80;;;;;;;13.51;61.70;97753.53;4994400;28;102693;-65
2023/11/01 08:30:50;;;;;;;5.57;2.38;;;;;;;13.35;60.56;97744.97;4973872;28;103968;-65
2023/11/01 08:33:18;;;;;;;4.13;1.80;;;;;;;13.68;61.32;97749.38;4980890;28;104150;-65
2023/11/01 08:35:49;;;;;;;4.65;1.85;;;;;;;13.80;60.58;97746.88;4988852;28;103267;-64
2023/11/01 08:38:18;;;;;;;4.10;1.60;;;;;;;13.93;60.15;97752.09;4991825;28;102677;-65
2023/11/01 08:40:49;;;;;;;6.85;2.00;;;;;;;13.93;58.86;97753.97;4992257;28;104292;-64
2023/11/01 08:43:25;;;;;;;2.65;1.77;;;;;;;14.08;59.50;97754.50;4984938;28;103627;-65
2023/11/01 08:45:58;;;;;;;4.10;2.05;;;;;;;14.23;58.63;97756.06;4991320;28;103255;-65
2023/11/01 08:48:26;;;;;;;4.15;1.80;;;;;;;14.20;58.56;97756.47;4973220;28;102650;-65
2023/11/01 08:50:54;;;;;;;4.63;1.77;;;;;;;14.04;58.38;97758.63;4987503;28;103723;-66
2023/11/01 08:53:29;;;;;;;3.13;1.48;;;;;;;14.23;58.26;97750.72;4991526;28;104162;-65
2023/11/01 08:56:02;;;;;;;3.40;1.48;;;;;;;14.38;58.16;97748.59;4977390;28;104481;-66
2023/11/01 08:58:30;;;;;;;4.18;2.00;;;;;;;14.15;57.98;97753.63;4988281;28;102597;-65
2023/11/01 09:00:59;;;;;;;4.60;2.03;;;;;;;14.47;57.52;97743.78;4981848;28;104223;-65
2023/11/01 09:03:29;;;;;;;2.63;1.52;;;;;;;14.51;56.80;97747.63;4987564;28;103397;-65
2023/11/01 09:05:57;;;;;;;3.15;1.67;;;;;;;14.57;57.90;97746.78;4970369;28;104191;-62
2023/11/01 09:08:25;;;;;;;4.28;1.80;;;;;;;14.62;57.29;97743.47;4986746;28;103193;-65
2023/11/01 09:10:53;;;;;;;2.92;1.55;;;;;;;14.64;57.18;97745.94;4988798;28;102697;-65
2023/11/01 09:13:22;;;;;;;11.68;2.20;;;;;;;14.54;57.53;97757.88;4988523;28;104408;-63
2023/11/01 09:15:51;;;;;;;3.35;1.67;;;;;;;14.72;56.76;97751.81;4974539;28;103300;-64
2023/11/01 09:18:21;;;;;;;4.05;1.65;;;;;;;14.97;57.03;97753.63;4989752;28;102668;-64
2023/11/01 09:20:49;;;;;;;4.68;1.45;;;;;;;14.79;55.82;97740.28;4989608;28;102629;-64
2023/11/01 09:23:18;;;;;;;5.00;1.48;;;;;;;14.86;56.09;97746.38;4969354;28;103112;-63
2023/11/01 09:25:54;;;;;;;4.82;2.20;;;;;;;14.95;56.34;97737.06;4990735;28;103248;-65
2023/11/01 09:28:22;;;;;;;3.28;1.70;;;;;;;14.84;56.32;97735.09;4989872;28;102720;-63
2023/11/01 09:30:50;;;;;;;2.63;1.50;;;;;;;14.89;56.69;97738.75;4986535;28;102811;-63
2023/11/01 09:33:17;;;;;;;4.88;1.75;;;;;;;15.03;55.46;97736.78;4982854;28;103970;-64
2023/11/01 09:35:47;;;;;;;3.20;1.30;;;;;;;14.82;56.17;97742.53;4985212;28;103276;-63
2023/11/01 09:38:15;;;;;;;2.17;1.48;;;;;;;14.84;55.69;97741.28;4987090;28;102666;-63
2023/11/01 09:40:44;;;;;;;3.55;1.58;;;;;;;15.12;55.10;97734.63;4985639;28;104010;-63
2023/11/01 09:43:16;;;;;;;4.45;1.60;;;;;;;15.02;54.70;97737.00;4980867;28;104232;-64
2023/11/01 09:45:47;;;;;;;3.50;1.50;;;;;;;15.19;55.24;97731.91;4986244;28;103213;-63
2023/11/01 09:48:16;;;;;;;6.75;1.40;;;;;;;15.28;54.31;97729.75;4984478;28;102730;-63
2023/11/01 09:50:47;;;;;;;2.35;1.48;;;;;;;15.40;54.29;97726.09;4987662;28;103915;-63
2023/11/01 09:53:17;;;;;;;3.70;1.55;;;;;;;15.44;54.10;97728.34;4972707;28;104274;-63
2023/11/01 09:55:45;;;;;;;1.45;1.17;;;;;;;15.47;54.88;97726.06;4985961;28;103308;-63
2023/11/01 09:58:18;;;;;;;3.05;1.50;;;;;;;15.43;54.22;97719.50;4984842;28;102689;-63
2023/11/01 10:00:47;;;;;;;2.85;1.50;;;;;;;15.56;54.20;97715.88;4990554;28;104357;-64
2023/11/01 10:03:17;;;;;;;4.40;1.90;;;;;;;15.48;53.40;97722.31;4985231;28;103718;-64
2023/11/01 10:05:45;;;;;;;6.85;1.50;;;;;;;15.76;52.84;97715.63;4982169;28;103246;-64
2023/11/01 10:08:14;;;;;;;2.00;1.20;;;;;;;15.69;52.97;97714.88;4982040;28;102687;-63
2023/11/01 10:10:43;;;;;;;4.38;1.60;;;;;;;15.79;51.58;97709.03;4982900;28;103816;-63
2023/11/01 10:13:11;;;;;;;2.33;1.17;;;;;;;15.76;52.01;97710.28;4986145;28;103245;-64
2023/11/01 10:15:39;;;;;;;7.88;2.03;;;;;;;15.88;52.07;97702.38;4977010;28;103913;-63
2023/11/01 10:18:07;;;;;;;7.07;1.77;;;;;;;15.79;51.55;97706.34;4968590;28;103368;-63
2023/11/01 10:20:35;;;;;;;2.83;1.42;;;;;;;15.95;52.00;97703.06;4965165;28;104105;-63
2023/11/01 10:23:03;;;;;;;3.03;1.40;;;;;;;16.04;50.96;97691.03;4957690;28;103321;-65
2023/11/01 10:25:31;;;;;;;2.78;1.38;;;;;;;16.12;51.35;97675.72;4956675;28;103300;-63
2023/11/01 10:28:02;;;;;;;2.45;1.15;;;;;;;16.07;51.95;97677.22;4958345;28;102977;-63
2023/11/01 10:30:30;;;;;;;3.72;1.40;;;;;;;16.25;50.30;97680.84;4943572;28;104136;-63
2023/11/01 10:33:00;;;;;;;2.35;1.42;;;;;;;16.28;50.28;97674.22;4981124;28;103705;-63
2023/11/01 10:35:28;;;;;;;2.85;1.30;;;;;;;16.34;50.14;97674.13;4974959;28;103263;-63
2023/11/01 10:37:58;;;;;;;2.38;1.40;;;;;;;16.69;49.92;97669.84;4980392;28;102827;-63
2023/11/01 10:40:27;;;;;;;2.17;1.20;;;;;;;16.50;49.74;97666.47;4985232;28;104450;-67
2023/11/01 10:42:58;;;;;;;2.90;1.40;;;;;;;16.62;49.28;97664.59;4981674;28;103329;-68
2023/11/01 10:45:27;;;;;;;2.10;1.30;;;;;;;16.83;48.96;97654.38;4987221;28;103290;-67
2023/11/01 10:47:56;;;;;;;2.67;1.40;;;;;;;16.81;48.87;97654.63;4970254;28;102727;-67
2023/11/01 10:50:25;;;;;;;2.30;1.20;;;;;;;16.82;48.27;97642.88;4975784;28;104188;-63
2023/11/01 10:52:54;;;;;;;3.08;1.58;;;;;;;16.68;48.25;97650.31;4982900;28;104129;-68
2023/11/01 10:55:24;;;;;;;1.50;1.10;;;;;;;16.99;48.25;97642.16;4962009;28;104393;-64
2023/11/01 10:57:52;;;;;;;2.08;1.25;;;;;;;17.15;47.63;97640.63;4985003;28;103076;-63
2023/11/01 11:00:24;;;;;;;2.40;1.40;;;;;;;17.16;47.95;97631.53;4986410;28;104422;-63
2023/11/01 11:02:59;;;;;;;3.83;1.42;;;;;;;17.14;47.87;97636.34;4988048;28;104260;-64
2023/11/01 11:05:30;;;;;;;3.13;1.60;;;;;;;17.05;47.73;97630.53;4988033;28;103174;-64
2023/11/01 11:07:58;;;;;;;3.78;1.58;;;;;;;17.21;47.53;97619.09;4988128;28;102678;-63
2023/11/01 11:10:28;;;;;;;1.48;1.20;;;;;;;17.35;47.63;97619.63;4989161;28;104236;-63
2023/11/01 11:13:26;;;;;;;4.82;1.40;;;;;;;17.34;47.34;97607.28;4983318;28;103445;-63
2023/11/01 11:15:59;;;;;;;3.63;1.25;;;;;;;17.28;46.51;97597.56;4963863;28;105634;-63
2023/11/01 11:18:59;;;;;;;5.63;1.45;;;;;;;17.69;45.47;97603.66;4986565;28;102616;-63
2023/11/01 11:21:59;;;;;;;2.10;1.23;;;;;;;17.65;46.56;97602.50;4982825;28;104161;-63
2023/11/01 11:24:46;;;;;;;2.72;1.50;;;;;;;17.44;46.77;97605.88;4984981;28;103312;-68
2023/11/01 11:27:49;;;;;;;1.75;1.10;;;;;;;17.15;46.00;97600.50;4983446;28;103202;-68
2023/11/01 11:31:07;;;;;;;2.15;1.17;;;;;;;17.17;46.00;97585.81;4977995;28;102853;-63
2023/11/01 11:33:37;;;;;;;1.85;1.20;;;;;;;17.32;47.41;97588.00;4984018;28;103668;-63
2023/11/01 11:36:15;;;;;;;7.57;1.80;;;;;;;17.60;46.64;97578.31;4983199;28;103362;-64
2023/11/01 11:38:51;;;;;;;3.58;1.50;;;;;;;17.76;44.99;97576.72;4982154;28;103198;-63
2023/11/01 11:41:20;;;;;;;2.97;1.45;;;;;;;17.90;44.88;97561.94;4985785;28;102770;-65
2023/11/01 11:44:08;;;;;;;2.72;1.50;;;;;;;17.62;45.18;97565.50;4988721;28;102861;-63
2023/11/01 11:46:39;;;;;;;2.55;1.50;;;;;;;17.39;45.96;97564.56;4983717;28;103316;-64